Туризм
Свали.ру
Погода в мире
ИА "Метеоновости"
Информеры
для сайтов
Туры
поиск и заказ
Авиабилеты
регулярные и чартерные рейсы
 
    На главную   Табло рисков задержки   Авиабилеты   Расписание авиарейсов

In Aménas Airport    ICAO или ID: DAUZ, IATA: IAM
Небольшой аэропорт, регулярные рейсы
добавить в избранное


широта:
долгота:
высота над уровнем моря:
28°3'
9°39'

563 м
Страна: Алжир (Algeria)
погода
туры
отели
аэропорты
Риск задержки рейсов из-за погоды
Факт:  
Прогноз:  
 Карта
 



Текущее время 16:44 UTC 24-06-2024
Солнце: восход 04:26, заход 18:21, долгота дня 13:55

  18:00 (на 24ч) 06:00 (на 24ч) [12:00 (на 24ч)]

Прогноз погоды на 24 ч. с 12:00 24-06-2024 по 12:00 25-06-2024 UTC


Исходная телеграмма в коде TAF
DAUZ 241100Z 2412/2512 16020KT 1500 BLSA NSC
PROB30 TEMPO 2412/2414 15020G30KT 0800
BECMG 2414/2416 28014KT 3000 DRSA
BECMG 2418/2420 6000 NSW

Раскодировка телеграмм производится в автоматическом режиме, в телеграммах могут содержаться ошибки, приводящие к их неправильной интерпретации.

Предупреждение: данные на этом сайте не могут быть использованы для планирования полётов и предоставляются только в информационных целях.
Найти аэропорт
По названию или городу
только регулярные рейсы

Избранные аэропорты
Список пуст



© 2008 Данио-Пресс. Все права защищены.
Использование материалов сайта возможно только с согласия администрации сервера.
По вопросам рекламы и размещения информации обращаться сюда.


 Рейтинг@Mail.ru  Rambler's Top100